Terminal Aerodrome Forecast
Issued by NWS

Current Version | Previous Version | Graphics & Text | Print | Product List | Glossary On
Versions: 1 2 3 4 5 6 7 8 9 10 11 12 13 14 15 16 17 18 19 20 21 22 23 24 25 26
000
FTUS41 KILN 181648 AAB
TAFLCK
TAF AMD
KLCK 181648Z 1817/1912 08012KT P6SM VCSH OVC060
     FM182200 09011KT 4SM -SHRA OVC025
     FM190600 13007KT P6SM OVC025=

USA.gov is the U.S. government's official web portal to all federal, state and local government web resources and services.